createdAt,value
2022-12-31T00:03:01.333Z,6.87
2022-12-31T00:10:14.889Z,6.91
2022-12-31T00:13:30.129Z,6.92
2022-12-31T00:16:56.010Z,6.96
2022-12-31T00:19:42.121Z,6.98
2022-12-31T00:39:56.710Z,7.15
2022-12-31T00:42:26.525Z,7.15
2022-12-31T00:44:53.950Z,7.15
2022-12-31T00:54:41.457Z,7.20
2022-12-31T00:57:29.316Z,7.21
2022-12-31T01:00:15.744Z,7.21
2022-12-31T01:03:01.376Z,7.21
2022-12-31T01:14:40.080Z,7.20
2022-12-31T01:17:07.589Z,7.21
2022-12-31T01:19:34.470Z,7.22
2022-12-31T01:22:01.275Z,7.22
2022-12-31T01:24:28.119Z,7.22
2022-12-31T01:26:57.814Z,7.23
2022-12-31T01:29:27.215Z,7.24
2022-12-31T01:32:02.589Z,7.24
2022-12-31T01:34:29.405Z,7.24
2022-12-31T01:36:56.558Z,7.26
2022-12-31T01:39:25.193Z,7.28
2022-12-31T01:41:52.048Z,7.29
2022-12-31T01:44:44.815Z,7.31
2022-12-31T01:47:16.747Z,7.34
2022-12-31T01:49:56.649Z,7.36
2022-12-31T01:52:23.551Z,7.36
2022-12-31T01:54:55.286Z,7.37
2022-12-31T01:57:24.963Z,7.37
2022-12-31T01:59:56.141Z,7.38
2022-12-31T02:02:28.111Z,7.42
2022-12-31T02:04:56.704Z,7.45
2022-12-31T02:07:24.892Z,7.46
2022-12-31T02:09:59.693Z,7.48
2022-12-31T02:12:32.862Z,7.52
2022-12-31T02:14:59.781Z,7.55
2022-12-31T02:17:47.121Z,7.57
2022-12-31T02:20:55.323Z,7.60
2022-12-31T02:23:40.458Z,7.61
2022-12-31T02:26:14.721Z,7.61
2022-12-31T02:28:42.692Z,7.63
2022-12-31T02:31:17.039Z,7.63
2022-12-31T02:34:04.777Z,7.65
2022-12-31T02:36:41.953Z,7.66
2022-12-31T02:39:18.348Z,7.67
2022-12-31T02:41:51.115Z,7.69
2022-12-31T02:44:28.089Z,7.72
2022-12-31T02:47:09.777Z,7.75
2022-12-31T02:49:39.228Z,7.78
2022-12-31T02:52:11.773Z,7.82
2022-12-31T02:54:48.868Z,7.87
2022-12-31T02:57:21.611Z,7.90
2022-12-31T03:00:07.139Z,7.91
2022-12-31T03:02:36.515Z,7.93
2022-12-31T03:05:03.659Z,7.97
2022-12-31T03:07:31.949Z,7.98
2022-12-31T03:09:58.906Z,8.02
2022-12-31T03:12:46.243Z,8.05
2022-12-31T03:15:20.694Z,8.09
2022-12-31T03:17:50.719Z,8.12
2022-12-31T03:20:36.524Z,8.15
2022-12-31T03:23:04.443Z,8.14
2022-12-31T03:25:49.432Z,8.13
2022-12-31T03:28:20.106Z,8.14
2022-12-31T03:30:48.512Z,8.16
2022-12-31T03:33:15.827Z,8.17
2022-12-31T03:35:43.665Z,8.20
2022-12-31T03:38:10.944Z,8.22
2022-12-31T03:40:48.455Z,8.26
2022-12-31T03:43:15.430Z,8.29
2022-12-31T03:45:42.442Z,8.32
2022-12-31T03:48:10.119Z,8.34
2022-12-31T03:50:36.995Z,8.37
2022-12-31T03:53:04.047Z,8.39
2022-12-31T03:55:30.976Z,8.42
2022-12-31T03:57:57.844Z,8.43
2022-12-31T04:00:24.865Z,8.45
2022-12-31T04:02:52.117Z,8.48
2022-12-31T04:05:18.978Z,8.50
2022-12-31T04:07:46.189Z,8.50
2022-12-31T04:10:14.457Z,8.52
2022-12-31T04:12:41.478Z,8.54
2022-12-31T04:15:09.284Z,8.55
2022-12-31T04:17:36.257Z,8.58
2022-12-31T04:20:03.408Z,8.59
2022-12-31T04:22:30.392Z,8.61
2022-12-31T04:24:57.120Z,8.65
2022-12-31T04:27:24.074Z,8.67
2022-12-31T04:29:50.855Z,8.69
2022-12-31T04:32:17.859Z,8.69
2022-12-31T04:34:44.780Z,8.70
2022-12-31T04:37:11.558Z,8.69
2022-12-31T04:39:38.418Z,8.70
2022-12-31T04:42:05.307Z,8.70
2022-12-31T04:44:34.390Z,8.73
2022-12-31T04:47:01.692Z,8.74
2022-12-31T04:49:28.554Z,8.73
2022-12-31T04:51:55.396Z,8.75
2022-12-31T04:54:22.302Z,8.77
2022-12-31T04:56:49.099Z,8.78
2022-12-31T04:59:15.935Z,8.80
2022-12-31T05:01:42.749Z,8.83
2022-12-31T05:04:09.629Z,8.87
2022-12-31T05:06:36.436Z,8.89
2022-12-31T05:09:03.351Z,8.90
2022-12-31T05:11:30.247Z,8.90
2022-12-31T05:13:57.035Z,8.91
2022-12-31T05:16:24.049Z,8.93
2022-12-31T05:18:50.967Z,8.95
2022-12-31T05:21:20.955Z,8.96
2022-12-31T05:23:48.193Z,8.96
2022-12-31T05:26:15.001Z,8.98
2022-12-31T05:28:41.846Z,8.99
2022-12-31T05:31:08.742Z,9.00
2022-12-31T05:33:35.535Z,9.02
2022-12-31T05:36:02.520Z,9.02
2022-12-31T05:38:29.433Z,9.03
2022-12-31T05:41:06.669Z,9.04
2022-12-31T05:43:34.046Z,9.05
2022-12-31T05:46:01.691Z,9.07
2022-12-31T05:48:28.631Z,9.09
2022-12-31T05:50:55.548Z,9.12
2022-12-31T05:53:22.351Z,9.15
2022-12-31T05:55:50.084Z,9.16
2022-12-31T05:58:17.052Z,9.18
2022-12-31T06:00:43.913Z,9.19
2022-12-31T06:03:10.878Z,9.19
2022-12-31T06:05:42.092Z,9.20
2022-12-31T06:08:09.736Z,9.22
2022-12-31T06:10:36.591Z,9.25
2022-12-31T06:13:03.452Z,9.28
2022-12-31T06:15:30.560Z,9.32
2022-12-31T06:17:57.446Z,9.36
2022-12-31T06:20:24.161Z,9.38
2022-12-31T06:22:50.986Z,9.40
2022-12-31T06:25:17.763Z,9.41
2022-12-31T06:27:44.632Z,9.42
2022-12-31T06:30:11.686Z,9.41
2022-12-31T06:32:40.182Z,9.42
2022-12-31T06:35:07.209Z,9.43
2022-12-31T06:37:34.007Z,9.45
2022-12-31T06:40:01.041Z,9.46
2022-12-31T06:42:29.000Z,9.47
2022-12-31T06:44:56.336Z,9.49
2022-12-31T06:47:23.366Z,9.50
2022-12-31T06:49:50.210Z,9.51
2022-12-31T06:52:16.959Z,9.53
2022-12-31T06:54:43.922Z,9.53
2022-12-31T06:57:10.869Z,9.50
2022-12-31T06:59:37.764Z,9.48
2022-12-31T07:02:27.931Z,9.47
2022-12-31T07:05:04.042Z,9.46
2022-12-31T07:07:46.255Z,9.44
2022-12-31T07:10:31.909Z,9.43
2022-12-31T07:13:16.856Z,9.42
2022-12-31T07:15:43.954Z,9.43
2022-12-31T07:18:29.964Z,9.43
2022-12-31T07:20:56.947Z,9.44
2022-12-31T07:23:24.359Z,9.45
2022-12-31T07:25:55.641Z,9.46
2022-12-31T07:28:31.620Z,9.48
2022-12-31T07:31:06.391Z,9.49
2022-12-31T07:33:40.066Z,9.49
2022-12-31T07:36:11.784Z,9.51
2022-12-31T07:38:57.106Z,9.53
2022-12-31T07:41:42.774Z,9.54
2022-12-31T07:44:25.030Z,9.53
2022-12-31T07:46:55.394Z,9.52
2022-12-31T07:49:22.997Z,9.50
2022-12-31T07:51:51.347Z,9.49
2022-12-31T07:54:18.346Z,9.50
2022-12-31T07:56:45.522Z,9.49
2022-12-31T07:59:31.286Z,9.50
2022-12-31T08:02:16.620Z,9.51
2022-12-31T08:05:01.983Z,9.52
2022-12-31T08:07:35.117Z,9.54
2022-12-31T08:10:02.032Z,9.54
2022-12-31T08:12:32.275Z,9.56
2022-12-31T08:14:59.511Z,9.57
2022-12-31T08:17:26.498Z,9.60
2022-12-31T08:19:53.528Z,9.62
2022-12-31T08:22:41.679Z,9.64
2022-12-31T08:25:19.364Z,9.67
2022-12-31T08:28:05.091Z,9.68
2022-12-31T08:30:37.131Z,9.72
2022-12-31T08:33:10.249Z,9.75
2022-12-31T08:35:40.138Z,9.76
2022-12-31T08:38:09.714Z,9.78
2022-12-31T08:40:45.816Z,9.79
2022-12-31T08:43:31.540Z,9.78
2022-12-31T08:45:59.661Z,9.77
2022-12-31T08:48:38.077Z,9.77
2022-12-31T08:51:05.496Z,9.77
2022-12-31T08:53:32.971Z,9.79
2022-12-31T08:56:13.171Z,9.81
2022-12-31T08:59:00.815Z,9.84
2022-12-31T09:01:31.631Z,9.85
2022-12-31T09:04:07.857Z,9.83
2022-12-31T09:06:40.503Z,9.83
2022-12-31T09:09:26.688Z,9.84
2022-12-31T09:12:10.802Z,9.86
2022-12-31T09:14:40.488Z,9.88
2022-12-31T09:17:15.468Z,9.90
2022-12-31T09:19:42.290Z,9.92
2022-12-31T09:22:09.805Z,9.95
2022-12-31T09:24:36.787Z,9.95
2022-12-31T09:27:27.523Z,9.96
2022-12-31T09:30:03.496Z,9.94
2022-12-31T09:32:30.395Z,9.94
2022-12-31T09:35:10.725Z,9.95
2022-12-31T09:37:51.611Z,9.96
2022-12-31T09:40:18.416Z,10.03
2022-12-31T09:42:54.366Z,10.09
2022-12-31T09:45:21.631Z,10.12
2022-12-31T09:47:57.669Z,10.13
2022-12-31T09:50:24.534Z,10.13
2022-12-31T09:53:19.956Z,10.12
2022-12-31T09:55:56.333Z,10.10
2022-12-31T09:58:31.508Z,10.10
2022-12-31T10:01:07.927Z,10.12
2022-12-31T10:03:34.811Z,10.13
2022-12-31T10:06:14.341Z,10.14
2022-12-31T10:08:41.152Z,10.17
2022-12-31T10:11:26.215Z,10.20
2022-12-31T10:14:04.747Z,10.23
2022-12-31T10:16:50.638Z,10.26
2022-12-31T10:19:35.993Z,10.27
2022-12-31T10:22:08.821Z,10.27
2022-12-31T10:24:41.653Z,10.28
2022-12-31T10:27:26.835Z,10.31
2022-12-31T10:30:12.792Z,10.33
2022-12-31T10:32:39.562Z,10.35
2022-12-31T10:35:09.125Z,10.37
2022-12-31T10:37:43.465Z,10.39
2022-12-31T10:40:30.265Z,10.42
2022-12-31T10:43:23.670Z,10.44
2022-12-31T10:45:50.514Z,10.46
2022-12-31T10:48:36.668Z,10.46
2022-12-31T10:51:22.089Z,10.47
2022-12-31T10:53:54.688Z,10.49
2022-12-31T10:56:24.090Z,10.50
2022-12-31T10:58:50.892Z,10.53
2022-12-31T11:01:43.052Z,10.54
2022-12-31T11:04:18.664Z,10.56
2022-12-31T11:06:54.099Z,10.58
2022-12-31T11:09:20.901Z,10.61
2022-12-31T11:11:47.675Z,10.65
2022-12-31T11:14:24.364Z,10.68
2022-12-31T11:16:57.192Z,10.71
2022-12-31T11:19:39.005Z,10.72
2022-12-31T11:22:05.823Z,10.75
2022-12-31T11:24:32.585Z,10.76
2022-12-31T11:27:32.834Z,10.77
2022-12-31T11:29:59.571Z,10.83
2022-12-31T11:32:32.495Z,10.89
2022-12-31T11:35:02.260Z,10.94
2022-12-31T11:37:44.060Z,10.98
2022-12-31T11:40:13.831Z,11.00
2022-12-31T11:42:49.605Z,11.02
2022-12-31T11:45:50.273Z,11.03
2022-12-31T11:48:31.970Z,11.06
2022-12-31T11:51:20.271Z,11.07
2022-12-31T11:54:05.645Z,11.08
2022-12-31T11:56:38.107Z,11.09
2022-12-31T11:59:12.075Z,11.12
2022-12-31T12:01:41.246Z,11.15
2022-12-31T12:04:09.692Z,11.18
2022-12-31T12:06:36.448Z,11.19
2022-12-31T12:09:05.779Z,11.22
2022-12-31T12:11:35.154Z,11.24
2022-12-31T12:14:17.647Z,11.26
2022-12-31T12:16:44.518Z,11.31
2022-12-31T12:19:17.097Z,11.35
2022-12-31T12:21:45.694Z,11.36
2022-12-31T12:24:21.266Z,11.40
2022-12-31T12:26:48.501Z,11.43
2022-12-31T12:29:20.499Z,11.47
2022-12-31T12:31:56.643Z,11.50
2022-12-31T12:34:25.009Z,11.53
2022-12-31T12:36:51.913Z,11.55
2022-12-31T12:39:20.919Z,11.59
2022-12-31T12:41:47.755Z,11.61
2022-12-31T12:44:16.189Z,11.65
2022-12-31T12:46:48.399Z,11.67
2022-12-31T12:49:24.782Z,11.69
2022-12-31T12:51:51.636Z,11.70
2022-12-31T12:54:33.686Z,11.72
2022-12-31T12:57:09.933Z,11.73
2022-12-31T12:59:36.741Z,11.74
2022-12-31T13:02:12.936Z,11.76
2022-12-31T13:04:51.908Z,11.77
2022-12-31T13:17:48.287Z,11.85
2022-12-31T13:20:25.628Z,11.87
2022-12-31T13:23:02.065Z,11.88
2022-12-31T13:32:17.019Z,11.92
2022-12-31T13:35:39.657Z,11.94
2022-12-31T13:38:21.955Z,11.96
2022-12-31T13:40:51.934Z,11.98
2022-12-31T13:43:21.790Z,12.01
2022-12-31T13:45:54.057Z,12.06
2022-12-31T13:48:31.519Z,12.12
2022-12-31T13:51:27.981Z,12.19
2022-12-31T13:54:24.527Z,12.22
2022-12-31T13:57:46.630Z,12.24
2022-12-31T14:01:46.096Z,12.24
2022-12-31T14:08:35.130Z,12.26
2022-12-31T14:11:35.936Z,12.29
2022-12-31T14:14:29.785Z,12.29
2022-12-31T14:17:17.152Z,12.31
2022-12-31T14:20:07.191Z,12.34
2022-12-31T14:22:43.218Z,12.35
2022-12-31T14:25:20.230Z,12.37
2022-12-31T14:27:48.208Z,12.39
2022-12-31T14:30:37.032Z,12.40
2022-12-31T14:33:22.244Z,12.43
2022-12-31T14:36:12.479Z,12.44
2022-12-31T14:38:59.496Z,12.47
2022-12-31T14:41:45.137Z,12.48
2022-12-31T14:44:14.541Z,12.49
2022-12-31T14:47:00.628Z,12.50
2022-12-31T14:49:27.353Z,12.52
2022-12-31T14:51:54.228Z,12.53
2022-12-31T14:54:28.937Z,12.54
2022-12-31T14:57:11.829Z,12.55
2022-12-31T14:59:40.655Z,12.57
2022-12-31T15:02:26.634Z,12.58
2022-12-31T15:05:03.477Z,12.59
2022-12-31T15:07:40.835Z,12.60
2022-12-31T15:10:07.758Z,12.62
2022-12-31T15:13:06.174Z,12.63
2022-12-31T15:15:48.740Z,12.65
2022-12-31T15:18:31.751Z,12.65
2022-12-31T15:21:13.101Z,12.64
2022-12-31T15:23:43.894Z,12.64
2022-12-31T15:26:22.447Z,12.64
2022-12-31T15:29:00.434Z,12.63
2022-12-31T15:31:28.079Z,12.62
2022-12-31T15:33:59.459Z,12.62
2022-12-31T15:36:33.560Z,12.61
2022-12-31T15:39:07.419Z,12.61
2022-12-31T15:42:02.954Z,12.61
2022-12-31T15:44:39.735Z,12.60
2022-12-31T15:47:15.563Z,12.58
2022-12-31T15:49:44.910Z,12.57
2022-12-31T15:52:14.334Z,12.55
2022-12-31T15:54:45.685Z,12.55
2022-12-31T15:57:31.230Z,12.54
2022-12-31T16:00:02.060Z,12.54
2022-12-31T16:02:31.610Z,12.54
2022-12-31T16:04:58.610Z,12.55
2022-12-31T16:07:27.210Z,12.53
2022-12-31T16:09:57.196Z,12.51
2022-12-31T16:12:30.945Z,12.50
2022-12-31T16:15:00.153Z,12.49
2022-12-31T16:18:22.812Z,12.49
2022-12-31T16:20:53.894Z,12.49
2022-12-31T16:23:22.357Z,12.49
2022-12-31T16:25:50.810Z,12.50
2022-12-31T16:28:23.007Z,12.51
2022-12-31T16:31:04.096Z,12.51
2022-12-31T16:33:31.826Z,12.50
2022-12-31T16:36:00.163Z,12.52
2022-12-31T16:38:34.274Z,12.53
2022-12-31T16:41:01.156Z,12.53
2022-12-31T16:43:29.670Z,12.52
2022-12-31T16:46:07.671Z,12.52
2022-12-31T16:48:34.643Z,12.52
2022-12-31T16:51:01.645Z,12.52
2022-12-31T16:53:32.071Z,12.52
2022-12-31T16:56:04.333Z,12.52
2022-12-31T16:58:33.178Z,12.52
2022-12-31T17:01:05.920Z,12.53
2022-12-31T17:03:33.100Z,12.52
2022-12-31T17:06:06.286Z,12.53
2022-12-31T17:08:41.366Z,12.53
2022-12-31T17:11:28.396Z,12.54
2022-12-31T17:14:05.886Z,12.55
2022-12-31T17:16:37.343Z,12.55
2022-12-31T17:19:04.384Z,12.57
2022-12-31T17:21:32.540Z,12.57
2022-12-31T17:24:01.599Z,12.57
2022-12-31T17:26:30.991Z,12.58
2022-12-31T17:28:59.313Z,12.58
2022-12-31T17:31:29.168Z,12.59
2022-12-31T17:34:11.467Z,12.59
2022-12-31T17:36:39.522Z,12.59
2022-12-31T17:39:17.233Z,12.59
2022-12-31T17:41:47.655Z,12.60
2022-12-31T17:44:19.845Z,12.61
2022-12-31T17:46:48.043Z,12.64
2022-12-31T17:49:15.149Z,12.66
2022-12-31T17:51:47.305Z,12.69
2022-12-31T17:54:15.084Z,12.72
2022-12-31T17:56:42.283Z,12.74
2022-12-31T17:59:14.156Z,12.76
2022-12-31T18:01:41.185Z,12.77
2022-12-31T18:04:14.851Z,12.78
2022-12-31T18:06:41.753Z,12.78
2022-12-31T18:09:08.909Z,12.81
2022-12-31T18:11:37.306Z,12.82
2022-12-31T18:14:04.098Z,12.85
2022-12-31T18:16:31.022Z,12.86
2022-12-31T18:18:59.045Z,12.90
2022-12-31T18:21:31.949Z,12.93
2022-12-31T18:26:27.493Z,12.94
2022-12-31T18:28:54.558Z,12.91
2022-12-31T18:31:29.525Z,12.87
2022-12-31T18:33:57.665Z,12.85
2022-12-31T18:36:25.264Z,12.84
2022-12-31T18:38:52.566Z,12.85
2022-12-31T18:41:27.271Z,12.83
2022-12-31T18:43:54.577Z,12.84
2022-12-31T18:46:22.618Z,12.83
2022-12-31T18:48:49.841Z,12.85
2022-12-31T18:51:23.042Z,12.86
2022-12-31T18:53:52.094Z,12.88
2022-12-31T18:56:19.665Z,12.91
2022-12-31T18:58:48.298Z,12.92
2022-12-31T19:01:35.475Z,12.94
2022-12-31T19:04:04.266Z,12.94
2022-12-31T19:06:31.095Z,12.97
2022-12-31T19:09:00.901Z,12.99
2022-12-31T19:11:28.145Z,12.98
2022-12-31T19:13:55.088Z,13.00
2022-12-31T19:16:21.970Z,13.03
2022-12-31T19:18:50.253Z,13.08
2022-12-31T19:21:18.693Z,13.14
2022-12-31T19:23:45.912Z,13.16
2022-12-31T19:26:16.605Z,13.17
2022-12-31T19:28:44.036Z,13.16
2022-12-31T19:31:12.508Z,13.13
2022-12-31T19:33:42.318Z,13.11
2022-12-31T19:36:16.952Z,13.10
2022-12-31T19:38:44.992Z,13.09
2022-12-31T19:41:19.238Z,13.08
2022-12-31T19:43:46.920Z,13.08
2022-12-31T19:46:17.598Z,13.10
2022-12-31T19:48:46.551Z,13.11
2022-12-31T19:51:18.145Z,13.12
2022-12-31T19:53:45.514Z,13.13
2022-12-31T19:56:13.496Z,13.13
2022-12-31T19:58:40.389Z,13.15
2022-12-31T20:01:08.896Z,13.15
2022-12-31T20:03:35.797Z,13.17
2022-12-31T20:06:08.031Z,13.19
2022-12-31T20:08:35.856Z,13.18
2022-12-31T20:11:18.766Z,13.17
2022-12-31T20:13:46.514Z,13.16
2022-12-31T20:16:17.701Z,13.17
2022-12-31T20:18:45.799Z,13.16
2022-12-31T20:21:14.416Z,13.17
2022-12-31T20:23:41.223Z,13.15
2022-12-31T20:26:08.444Z,13.13
2022-12-31T20:28:36.147Z,13.13
2022-12-31T20:31:11.691Z,13.14
2022-12-31T20:33:39.072Z,13.15
2022-12-31T20:36:07.163Z,13.13
2022-12-31T20:38:34.731Z,13.11
2022-12-31T20:41:02.463Z,13.12
2022-12-31T20:43:30.976Z,13.13
2022-12-31T20:45:57.855Z,13.15
2022-12-31T20:48:24.826Z,13.16
2022-12-31T20:50:58.063Z,13.16
2022-12-31T20:53:24.952Z,13.14
2022-12-31T20:55:51.828Z,13.11
2022-12-31T20:58:18.668Z,13.09
2022-12-31T21:00:49.154Z,13.07
2022-12-31T21:03:54.144Z,13.08
2022-12-31T21:06:08.305Z,13.10
2022-12-31T21:08:35.500Z,13.07
2022-12-31T21:11:23.092Z,13.11
2022-12-31T21:13:50.332Z,13.12
2022-12-31T21:16:17.733Z,13.11
2022-12-31T21:18:45.031Z,13.12
2022-12-31T21:21:12.240Z,13.13
2022-12-31T21:23:39.096Z,13.14
2022-12-31T21:26:07.575Z,13.12
2022-12-31T21:28:35.693Z,13.12
2022-12-31T21:31:07.117Z,13.12
2022-12-31T21:33:43.698Z,13.12
2022-12-31T21:36:11.394Z,13.11
2022-12-31T21:38:41.132Z,13.11
2022-12-31T21:41:35.045Z,13.11
2022-12-31T21:44:03.310Z,13.11
2022-12-31T21:46:30.294Z,13.12
2022-12-31T21:48:57.900Z,13.12
2022-12-31T21:51:24.805Z,13.10
2022-12-31T21:53:51.612Z,13.08
2022-12-31T21:56:20.673Z,13.07
2022-12-31T21:59:12.414Z,13.07
2022-12-31T22:01:58.567Z,13.07
2022-12-31T22:05:00.272Z,13.08
2022-12-31T22:07:12.562Z,13.09
2022-12-31T22:09:39.391Z,13.09
2022-12-31T22:12:06.432Z,13.10
2022-12-31T22:14:33.200Z,13.12
2022-12-31T22:17:00.018Z,13.13
2022-12-31T22:19:26.825Z,13.15
2022-12-31T22:21:53.590Z,13.16
2022-12-31T22:24:20.467Z,13.17
2022-12-31T22:26:47.237Z,13.17
2022-12-31T22:29:14.209Z,13.16
2022-12-31T22:31:41.148Z,13.15
2022-12-31T22:34:08.040Z,13.15
2022-12-31T22:36:34.860Z,13.15
2022-12-31T22:39:01.794Z,13.15
2022-12-31T22:41:28.812Z,13.15
2022-12-31T22:44:03.052Z,13.16
2022-12-31T22:46:33.126Z,13.16
2022-12-31T22:49:01.475Z,13.17
2022-12-31T22:51:54.720Z,13.17
2022-12-31T22:54:16.207Z,13.18
2022-12-31T22:56:43.564Z,13.18
2022-12-31T22:59:11.455Z,13.17
2022-12-31T23:01:40.647Z,13.19
2022-12-31T23:04:11.818Z,13.14
2022-12-31T23:06:45.109Z,13.16
2022-12-31T23:09:31.199Z,13.16
2022-12-31T23:11:59.000Z,13.16
2022-12-31T23:14:48.368Z,13.17
2022-12-31T23:17:35.420Z,13.18
2022-12-31T23:20:21.712Z,13.19
2022-12-31T23:23:09.205Z,13.20
2022-12-31T23:25:51.037Z,13.21
2022-12-31T23:28:21.359Z,13.20
2022-12-31T23:30:50.906Z,13.20
2022-12-31T23:33:19.922Z,13.19
2022-12-31T23:35:47.307Z,13.18
2022-12-31T23:38:19.903Z,13.16
2022-12-31T23:40:46.848Z,13.17
2022-12-31T23:43:21.251Z,13.17
2022-12-31T23:45:52.178Z,13.15
2022-12-31T23:48:19.701Z,13.14
2022-12-31T23:51:26.649Z,13.11
2022-12-31T23:53:57.416Z,13.10
2022-12-31T23:56:24.528Z,13.09
2022-12-31T23:58:55.356Z,13.09
